sensor_id;sensor_type;location;lat;lon;timestamp;P1;durP1;ratioP1;P2;durP2;ratioP2
75689;SDS011;64303;53.118;9.044;2023-02-15T00:01:31;18.88;;;16.88;;
75689;SDS011;64303;53.118;9.044;2023-02-15T00:03:59;20.17;;;18.10;;
75689;SDS011;64303;53.118;9.044;2023-02-15T00:06:26;18.70;;;16.75;;
75689;SDS011;64303;53.118;9.044;2023-02-15T00:08:53;16.73;;;14.98;;
75689;SDS011;64303;53.118;9.044;2023-02-15T00:11:20;19.88;;;16.55;;
75689;SDS011;64303;53.118;9.044;2023-02-15T00:14:05;18.25;;;16.58;;
75689;SDS011;64303;53.118;9.044;2023-02-15T00:16:32;24.65;;;17.58;;
75689;SDS011;64303;53.118;9.044;2023-02-15T00:19:00;22.45;;;19.85;;
75689;SDS011;64303;53.118;9.044;2023-02-15T00:21:28;19.13;;;16.83;;
75689;SDS011;64303;53.118;9.044;2023-02-15T00:23:55;20.83;;;16.30;;
75689;SDS011;64303;53.118;9.044;2023-02-15T00:26:22;19.92;;;16.42;;
75689;SDS011;64303;53.118;9.044;2023-02-15T00:28:48;19.35;;;17.27;;
75689;SDS011;64303;53.118;9.044;2023-02-15T00:31:15;21.02;;;19.08;;
75689;SDS011;64303;53.118;9.044;2023-02-15T00:33:42;19.40;;;17.25;;
75689;SDS011;64303;53.118;9.044;2023-02-15T00:36:10;20.15;;;17.90;;
75689;SDS011;64303;53.118;9.044;2023-02-15T00:38:37;17.80;;;15.93;;
75689;SDS011;64303;53.118;9.044;2023-02-15T00:41:05;19.35;;;16.52;;
75689;SDS011;64303;53.118;9.044;2023-02-15T00:43:33;20.27;;;18.30;;
75689;SDS011;64303;53.118;9.044;2023-02-15T00:46:01;20.90;;;17.17;;
75689;SDS011;64303;53.118;9.044;2023-02-15T00:48:28;19.90;;;16.13;;
75689;SDS011;64303;53.118;9.044;2023-02-15T00:50:55;49.85;;;25.45;;
75689;SDS011;64303;53.118;9.044;2023-02-15T00:53:24;44.90;;;25.33;;
75689;SDS011;64303;53.118;9.044;2023-02-15T00:55:51;52.20;;;24.33;;
75689;SDS011;64303;53.118;9.044;2023-02-15T00:58:18;65.57;;;25.00;;
75689;SDS011;64303;53.118;9.044;2023-02-15T01:00:45;53.53;;;20.08;;
75689;SDS011;64303;53.118;9.044;2023-02-15T01:03:14;61.47;;;25.13;;
75689;SDS011;64303;53.118;9.044;2023-02-15T01:05:42;47.88;;;24.40;;
75689;SDS011;64303;53.118;9.044;2023-02-15T01:08:09;43.40;;;18.20;;
75689;SDS011;64303;53.118;9.044;2023-02-15T01:10:38;46.45;;;24.58;;
75689;SDS011;64303;53.118;9.044;2023-02-15T01:15:33;40.22;;;18.75;;
75689;SDS011;64303;53.118;9.044;2023-02-15T01:18:00;27.27;;;17.95;;
75689;SDS011;64303;53.118;9.044;2023-02-15T01:20:27;31.80;;;20.30;;
75689;SDS011;64303;53.118;9.044;2023-02-15T01:22:56;38.67;;;21.00;;
75689;SDS011;64303;53.118;9.044;2023-02-15T01:25:23;34.13;;;21.20;;
75689;SDS011;64303;53.118;9.044;2023-02-15T01:27:52;33.60;;;20.95;;
75689;SDS011;64303;53.118;9.044;2023-02-15T01:30:18;33.25;;;22.70;;
75689;SDS011;64303;53.118;9.044;2023-02-15T01:32:46;31.10;;;19.88;;
75689;SDS011;64303;53.118;9.044;2023-02-15T01:35:13;32.75;;;21.83;;
75689;SDS011;64303;53.118;9.044;2023-02-15T01:37:39;32.50;;;21.73;;
75689;SDS011;64303;53.118;9.044;2023-02-15T01:40:08;30.90;;;20.40;;
75689;SDS011;64303;53.118;9.044;2023-02-15T01:42:38;30.27;;;19.40;;
75689;SDS011;64303;53.118;9.044;2023-02-15T01:45:13;29.08;;;16.50;;
75689;SDS011;64303;53.118;9.044;2023-02-15T01:47:44;27.48;;;21.52;;
75689;SDS011;64303;53.118;9.044;2023-02-15T01:50:12;36.08;;;20.42;;
75689;SDS011;64303;53.118;9.044;2023-02-15T01:52:41;32.55;;;15.43;;
75689;SDS011;64303;53.118;9.044;2023-02-15T01:55:10;25.13;;;16.58;;
75689;SDS011;64303;53.118;9.044;2023-02-15T01:57:37;28.48;;;18.83;;
75689;SDS011;64303;53.118;9.044;2023-02-15T02:00:09;25.02;;;17.00;;
75689;SDS011;64303;53.118;9.044;2023-02-15T02:02:39;31.58;;;18.40;;
75689;SDS011;64303;53.118;9.044;2023-02-15T02:05:06;35.22;;;19.83;;
75689;SDS011;64303;53.118;9.044;2023-02-15T02:07:34;31.35;;;19.73;;
75689;SDS011;64303;53.118;9.044;2023-02-15T02:10:04;40.28;;;18.38;;
75689;SDS011;64303;53.118;9.044;2023-02-15T02:12:32;32.33;;;19.98;;
75689;SDS011;64303;53.118;9.044;2023-02-15T02:15:00;27.15;;;19.48;;
75689;SDS011;64303;53.118;9.044;2023-02-15T02:17:30;26.80;;;19.90;;
75689;SDS011;64303;53.118;9.044;2023-02-15T02:20:15;30.35;;;15.73;;
75689;SDS011;64303;53.118;9.044;2023-02-15T02:29:03;25.15;;;18.08;;
75689;SDS011;64303;53.118;9.044;2023-02-15T02:31:47;19.50;;;16.10;;
75689;SDS011;64303;53.118;9.044;2023-02-15T02:34:38;23.00;;;17.35;;
75689;SDS011;64303;53.118;9.044;2023-02-15T02:37:12;22.77;;;16.00;;
75689;SDS011;64303;53.118;9.044;2023-02-15T02:39:47;32.72;;;20.65;;
75689;SDS011;64303;53.118;9.044;2023-02-15T02:42:18;29.63;;;18.33;;
75689;SDS011;64303;53.118;9.044;2023-02-15T02:44:49;24.88;;;17.33;;
75689;SDS011;64303;53.118;9.044;2023-02-15T02:47:18;21.80;;;18.38;;
75689;SDS011;64303;53.118;9.044;2023-02-15T02:49:51;26.85;;;19.55;;
75689;SDS011;64303;53.118;9.044;2023-02-15T02:52:34;24.42;;;20.60;;
75689;SDS011;64303;53.118;9.044;2023-02-15T02:55:02;26.38;;;18.50;;
75689;SDS011;64303;53.118;9.044;2023-02-15T02:57:31;26.35;;;17.25;;
75689;SDS011;64303;53.118;9.044;2023-02-15T02:59:59;24.83;;;19.38;;
75689;SDS011;64303;53.118;9.044;2023-02-15T03:02:30;31.23;;;18.63;;
75689;SDS011;64303;53.118;9.044;2023-02-15T03:05:00;24.40;;;18.02;;
75689;SDS011;64303;53.118;9.044;2023-02-15T03:07:29;27.58;;;19.55;;
75689;SDS011;64303;53.118;9.044;2023-02-15T03:10:00;30.88;;;18.63;;
75689;SDS011;64303;53.118;9.044;2023-02-15T03:12:28;29.17;;;20.10;;
75689;SDS011;64303;53.118;9.044;2023-02-15T03:14:59;26.05;;;17.75;;
75689;SDS011;64303;53.118;9.044;2023-02-15T03:17:28;25.55;;;18.58;;
75689;SDS011;64303;53.118;9.044;2023-02-15T03:20:01;24.23;;;18.25;;
75689;SDS011;64303;53.118;9.044;2023-02-15T03:22:33;25.42;;;17.58;;
75689;SDS011;64303;53.118;9.044;2023-02-15T03:25:02;25.75;;;19.23;;
75689;SDS011;64303;53.118;9.044;2023-02-15T03:27:32;29.75;;;18.35;;
75689;SDS011;64303;53.118;9.044;2023-02-15T03:30:02;23.20;;;19.58;;
75689;SDS011;64303;53.118;9.044;2023-02-15T03:32:31;28.45;;;15.77;;
75689;SDS011;64303;53.118;9.044;2023-02-15T03:35:00;21.65;;;16.60;;
75689;SDS011;64303;53.118;9.044;2023-02-15T03:37:28;21.17;;;18.90;;
75689;SDS011;64303;53.118;9.044;2023-02-15T03:39:59;20.23;;;13.32;;
75689;SDS011;64303;53.118;9.044;2023-02-15T03:42:48;19.67;;;16.33;;
75689;SDS011;64303;53.118;9.044;2023-02-15T03:45:21;23.80;;;19.00;;
75689;SDS011;64303;53.118;9.044;2023-02-15T03:47:50;22.65;;;16.80;;
75689;SDS011;64303;53.118;9.044;2023-02-15T03:50:21;21.48;;;18.38;;
75689;SDS011;64303;53.118;9.044;2023-02-15T03:53:07;17.48;;;14.27;;
75689;SDS011;64303;53.118;9.044;2023-02-15T03:55:36;21.60;;;17.38;;
75689;SDS011;64303;53.118;9.044;2023-02-15T03:58:03;19.33;;;16.63;;
75689;SDS011;64303;53.118;9.044;2023-02-15T04:00:48;28.13;;;18.98;;
75689;SDS011;64303;53.118;9.044;2023-02-15T04:03:42;25.55;;;13.15;;
75689;SDS011;64303;53.118;9.044;2023-02-15T04:06:13;28.25;;;18.35;;
75689;SDS011;64303;53.118;9.044;2023-02-15T04:08:40;30.13;;;18.90;;
75689;SDS011;64303;53.118;9.044;2023-02-15T04:11:24;28.65;;;17.17;;
75689;SDS011;64303;53.118;9.044;2023-02-15T04:13:51;25.27;;;18.08;;
75689;SDS011;64303;53.118;9.044;2023-02-15T04:16:21;22.00;;;17.60;;
75689;SDS011;64303;53.118;9.044;2023-02-15T04:18:47;24.17;;;17.52;;
75689;SDS011;64303;53.118;9.044;2023-02-15T04:21:33;24.67;;;18.02;;
75689;SDS011;64303;53.118;9.044;2023-02-15T04:24:17;20.08;;;16.15;;
75689;SDS011;64303;53.118;9.044;2023-02-15T04:27:02;23.13;;;17.88;;
75689;SDS011;64303;53.118;9.044;2023-02-15T04:29:29;21.60;;;18.33;;
75689;SDS011;64303;53.118;9.044;2023-02-15T04:31:57;25.70;;;17.33;;
75689;SDS011;64303;53.118;9.044;2023-02-15T04:34:25;23.63;;;20.80;;
75689;SDS011;64303;53.118;9.044;2023-02-15T04:36:53;21.15;;;15.98;;
75689;SDS011;64303;53.118;9.044;2023-02-15T04:39:20;24.23;;;19.02;;
75689;SDS011;64303;53.118;9.044;2023-02-15T04:41:46;23.35;;;17.25;;
75689;SDS011;64303;53.118;9.044;2023-02-15T04:44:13;25.02;;;18.77;;
75689;SDS011;64303;53.118;9.044;2023-02-15T04:46:40;21.30;;;17.08;;
75689;SDS011;64303;53.118;9.044;2023-02-15T04:49:07;25.58;;;17.77;;
75689;SDS011;64303;53.118;9.044;2023-02-15T04:51:34;25.50;;;16.42;;
75689;SDS011;64303;53.118;9.044;2023-02-15T04:54:02;24.10;;;20.30;;
75689;SDS011;64303;53.118;9.044;2023-02-15T04:56:29;25.10;;;16.13;;
75689;SDS011;64303;53.118;9.044;2023-02-15T04:58:58;23.73;;;18.67;;
75689;SDS011;64303;53.118;9.044;2023-02-15T05:01:24;29.50;;;12.88;;
75689;SDS011;64303;53.118;9.044;2023-02-15T05:03:51;21.50;;;18.67;;
75689;SDS011;64303;53.118;9.044;2023-02-15T05:06:18;20.10;;;17.67;;
75689;SDS011;64303;53.118;9.044;2023-02-15T05:08:44;20.80;;;16.40;;
75689;SDS011;64303;53.118;9.044;2023-02-15T05:11:12;24.17;;;16.42;;
75689;SDS011;64303;53.118;9.044;2023-02-15T05:13:39;20.00;;;17.77;;
75689;SDS011;64303;53.118;9.044;2023-02-15T05:16:06;20.08;;;16.02;;
75689;SDS011;64303;53.118;9.044;2023-02-15T05:18:32;22.38;;;14.45;;
75689;SDS011;64303;53.118;9.044;2023-02-15T05:20:59;22.20;;;17.85;;
75689;SDS011;64303;53.118;9.044;2023-02-15T05:23:26;25.42;;;12.88;;
75689;SDS011;64303;53.118;9.044;2023-02-15T05:25:53;19.17;;;15.38;;
75689;SDS011;64303;53.118;9.044;2023-02-15T05:28:38;24.35;;;15.23;;
75689;SDS011;64303;53.118;9.044;2023-02-15T05:31:06;24.60;;;18.05;;
75689;SDS011;64303;53.118;9.044;2023-02-15T05:33:34;18.35;;;11.80;;
75689;SDS011;64303;53.118;9.044;2023-02-15T05:36:01;22.15;;;19.33;;
75689;SDS011;64303;53.118;9.044;2023-02-15T05:38:27;20.67;;;17.88;;
75689;SDS011;64303;53.118;9.044;2023-02-15T05:40:54;21.80;;;17.58;;
75689;SDS011;64303;53.118;9.044;2023-02-15T05:43:21;33.90;;;24.73;;
75689;SDS011;64303;53.118;9.044;2023-02-15T05:45:50;24.85;;;21.27;;
75689;SDS011;64303;53.118;9.044;2023-02-15T05:48:18;11.77;;;10.68;;
75689;SDS011;64303;53.118;9.044;2023-02-15T05:50:46;12.27;;;11.05;;
75689;SDS011;64303;53.118;9.044;2023-02-15T05:53:13;16.73;;;12.52;;
75689;SDS011;64303;53.118;9.044;2023-02-15T05:55:40;23.23;;;13.48;;
75689;SDS011;64303;53.118;9.044;2023-02-15T05:58:07;16.63;;;13.85;;
75689;SDS011;64303;53.118;9.044;2023-02-15T06:00:34;21.55;;;13.35;;
75689;SDS011;64303;53.118;9.044;2023-02-15T06:03:02;22.95;;;13.50;;
75689;SDS011;64303;53.118;9.044;2023-02-15T06:05:29;20.85;;;16.70;;
75689;SDS011;64303;53.118;9.044;2023-02-15T06:07:56;18.15;;;13.02;;
75689;SDS011;64303;53.118;9.044;2023-02-15T06:10:22;25.40;;;14.65;;
75689;SDS011;64303;53.118;9.044;2023-02-15T06:12:49;21.27;;;13.85;;
75689;SDS011;64303;53.118;9.044;2023-02-15T06:15:16;19.55;;;15.35;;
75689;SDS011;64303;53.118;9.044;2023-02-15T06:17:42;17.23;;;14.63;;
75689;SDS011;64303;53.118;9.044;2023-02-15T06:20:11;22.65;;;15.40;;
75689;SDS011;64303;53.118;9.044;2023-02-15T06:22:38;19.70;;;13.95;;
75689;SDS011;64303;53.118;9.044;2023-02-15T06:25:05;19.10;;;17.23;;
75689;SDS011;64303;53.118;9.044;2023-02-15T06:27:35;23.73;;;17.10;;
75689;SDS011;64303;53.118;9.044;2023-02-15T06:30:02;17.92;;;16.17;;
75689;SDS011;64303;53.118;9.044;2023-02-15T06:32:29;20.10;;;15.48;;
75689;SDS011;64303;53.118;9.044;2023-02-15T06:34:56;19.88;;;17.10;;
75689;SDS011;64303;53.118;9.044;2023-02-15T06:37:24;27.08;;;18.63;;
75689;SDS011;64303;53.118;9.044;2023-02-15T06:39:51;19.25;;;15.55;;
75689;SDS011;64303;53.118;9.044;2023-02-15T06:42:17;19.27;;;15.05;;
75689;SDS011;64303;53.118;9.044;2023-02-15T06:44:45;17.92;;;15.52;;
75689;SDS011;64303;53.118;9.044;2023-02-15T06:47:11;19.27;;;15.50;;
75689;SDS011;64303;53.118;9.044;2023-02-15T06:49:38;21.02;;;16.05;;
75689;SDS011;64303;53.118;9.044;2023-02-15T06:52:05;18.67;;;12.35;;
75689;SDS011;64303;53.118;9.044;2023-02-15T06:54:33;19.40;;;17.50;;
75689;SDS011;64303;53.118;9.044;2023-02-15T06:57:00;19.15;;;15.55;;
75689;SDS011;64303;53.118;9.044;2023-02-15T06:59:26;18.15;;;16.35;;
75689;SDS011;64303;53.118;9.044;2023-02-15T07:01:53;24.00;;;17.08;;
75689;SDS011;64303;53.118;9.044;2023-02-15T07:04:20;23.10;;;17.95;;
75689;SDS011;64303;53.118;9.044;2023-02-15T07:06:46;23.33;;;17.83;;
75689;SDS011;64303;53.118;9.044;2023-02-15T07:09:13;19.90;;;17.63;;
75689;SDS011;64303;53.118;9.044;2023-02-15T07:11:41;20.35;;;18.38;;
75689;SDS011;64303;53.118;9.044;2023-02-15T07:14:25;20.33;;;17.13;;
75689;SDS011;64303;53.118;9.044;2023-02-15T07:16:52;19.23;;;17.13;;
75689;SDS011;64303;53.118;9.044;2023-02-15T07:19:19;17.27;;;13.50;;
75689;SDS011;64303;53.118;9.044;2023-02-15T07:21:46;17.10;;;14.30;;
75689;SDS011;64303;53.118;9.044;2023-02-15T07:24:12;14.98;;;12.18;;
75689;SDS011;64303;53.118;9.044;2023-02-15T07:26:41;21.65;;;19.35;;
75689;SDS011;64303;53.118;9.044;2023-02-15T07:29:08;17.77;;;15.82;;
75689;SDS011;64303;53.118;9.044;2023-02-15T07:31:34;17.75;;;16.00;;
75689;SDS011;64303;53.118;9.044;2023-02-15T07:34:01;21.00;;;18.55;;
75689;SDS011;64303;53.118;9.044;2023-02-15T07:36:28;21.25;;;18.92;;
75689;SDS011;64303;53.118;9.044;2023-02-15T07:38:55;19.90;;;17.02;;
75689;SDS011;64303;53.118;9.044;2023-02-15T07:41:21;27.67;;;18.27;;
75689;SDS011;64303;53.118;9.044;2023-02-15T07:43:50;24.92;;;15.65;;
75689;SDS011;64303;53.118;9.044;2023-02-15T07:46:16;21.92;;;14.57;;
75689;SDS011;64303;53.118;9.044;2023-02-15T07:48:44;20.60;;;15.05;;
75689;SDS011;64303;53.118;9.044;2023-02-15T07:51:11;18.90;;;16.70;;
75689;SDS011;64303;53.118;9.044;2023-02-15T07:53:39;21.10;;;16.65;;
75689;SDS011;64303;53.118;9.044;2023-02-15T07:56:07;26.55;;;17.35;;
75689;SDS011;64303;53.118;9.044;2023-02-15T07:58:37;23.08;;;16.63;;
75689;SDS011;64303;53.118;9.044;2023-02-15T08:01:22;23.98;;;16.58;;
75689;SDS011;64303;53.118;9.044;2023-02-15T08:03:51;23.13;;;16.35;;
75689;SDS011;64303;53.118;9.044;2023-02-15T08:06:19;17.13;;;15.05;;
75689;SDS011;64303;53.118;9.044;2023-02-15T08:08:46;25.20;;;20.48;;
75689;SDS011;64303;53.118;9.044;2023-02-15T08:11:16;20.85;;;16.83;;
75689;SDS011;64303;53.118;9.044;2023-02-15T08:13:59;28.00;;;16.75;;
75689;SDS011;64303;53.118;9.044;2023-02-15T08:18:58;18.90;;;16.80;;
75689;SDS011;64303;53.118;9.044;2023-02-15T08:21:25;15.30;;;13.25;;
75689;SDS011;64303;53.118;9.044;2023-02-15T08:23:53;19.30;;;16.70;;
75689;SDS011;64303;53.118;9.044;2023-02-15T08:26:20;22.77;;;18.73;;
75689;SDS011;64303;53.118;9.044;2023-02-15T08:28:47;18.20;;;16.35;;
75689;SDS011;64303;53.118;9.044;2023-02-15T08:31:15;20.52;;;16.73;;
75689;SDS011;64303;53.118;9.044;2023-02-15T08:33:44;21.75;;;19.67;;
75689;SDS011;64303;53.118;9.044;2023-02-15T08:36:12;22.58;;;16.83;;
75689;SDS011;64303;53.118;9.044;2023-02-15T08:38:40;20.63;;;13.07;;
75689;SDS011;64303;53.118;9.044;2023-02-15T08:41:10;17.88;;;15.75;;
75689;SDS011;64303;53.118;9.044;2023-02-15T08:43:39;18.63;;;16.48;;
75689;SDS011;64303;53.118;9.044;2023-02-15T08:46:05;21.80;;;19.30;;
75689;SDS011;64303;53.118;9.044;2023-02-15T08:48:32;20.35;;;12.73;;
75689;SDS011;64303;53.118;9.044;2023-02-15T08:51:05;18.25;;;16.17;;
75689;SDS011;64303;53.118;9.044;2023-02-15T08:53:33;19.63;;;17.55;;
75689;SDS011;64303;53.118;9.044;2023-02-15T08:55:59;25.58;;;20.95;;
75689;SDS011;64303;53.118;9.044;2023-02-15T08:58:26;26.75;;;23.98;;
75689;SDS011;64303;53.118;9.044;2023-02-15T09:00:54;26.92;;;21.10;;
75689;SDS011;64303;53.118;9.044;2023-02-15T09:03:21;22.13;;;19.70;;
75689;SDS011;64303;53.118;9.044;2023-02-15T09:05:48;20.52;;;14.68;;
75689;SDS011;64303;53.118;9.044;2023-02-15T09:08:16;19.35;;;17.33;;
75689;SDS011;64303;53.118;9.044;2023-02-15T09:10:43;19.85;;;17.95;;
75689;SDS011;64303;53.118;9.044;2023-02-15T09:13:10;19.50;;;17.65;;
75689;SDS011;64303;53.118;9.044;2023-02-15T09:15:36;20.80;;;18.80;;
75689;SDS011;64303;53.118;9.044;2023-02-15T09:18:03;22.85;;;20.67;;
75689;SDS011;64303;53.118;9.044;2023-02-15T09:20:31;20.38;;;16.05;;
75689;SDS011;64303;53.118;9.044;2023-02-15T09:22:58;21.83;;;19.75;;
75689;SDS011;64303;53.118;9.044;2023-02-15T09:25:27;20.60;;;18.65;;
75689;SDS011;64303;53.118;9.044;2023-02-15T09:27:54;20.92;;;18.85;;
75689;SDS011;64303;53.118;9.044;2023-02-15T09:30:20;20.25;;;17.58;;
75689;SDS011;64303;53.118;9.044;2023-02-15T09:32:47;18.13;;;16.33;;
75689;SDS011;64303;53.118;9.044;2023-02-15T09:35:14;19.08;;;16.52;;
75689;SDS011;64303;53.118;9.044;2023-02-15T09:37:41;18.52;;;14.43;;
75689;SDS011;64303;53.118;9.044;2023-02-15T09:40:07;19.63;;;17.73;;
75689;SDS011;64303;53.118;9.044;2023-02-15T09:42:42;19.33;;;17.33;;
75689;SDS011;64303;53.118;9.044;2023-02-15T09:45:25;19.67;;;17.55;;
75689;SDS011;64303;53.118;9.044;2023-02-15T09:48:04;18.25;;;16.02;;
75689;SDS011;64303;53.118;9.044;2023-02-15T09:50:39;18.67;;;16.85;;
75689;SDS011;64303;53.118;9.044;2023-02-15T09:53:20;20.60;;;18.70;;
75689;SDS011;64303;53.118;9.044;2023-02-15T09:55:57;19.73;;;16.33;;
75689;SDS011;64303;53.118;9.044;2023-02-15T09:58:29;19.50;;;17.60;;
75689;SDS011;64303;53.118;9.044;2023-02-15T10:01:07;18.02;;;16.15;;
75689;SDS011;64303;53.118;9.044;2023-02-15T10:03:39;18.85;;;16.95;;
75689;SDS011;64303;53.118;9.044;2023-02-15T10:06:14;19.85;;;16.27;;
75689;SDS011;64303;53.118;9.044;2023-02-15T10:08:56;21.05;;;17.65;;
75689;SDS011;64303;53.118;9.044;2023-02-15T10:11:31;22.35;;;20.05;;
75689;SDS011;64303;53.118;9.044;2023-02-15T10:14:12;23.70;;;21.13;;
75689;SDS011;64303;53.118;9.044;2023-02-15T10:16:54;21.55;;;18.88;;
75689;SDS011;64303;53.118;9.044;2023-02-15T10:19:27;21.17;;;18.58;;
75689;SDS011;64303;53.118;9.044;2023-02-15T10:22:02;20.88;;;18.67;;
75689;SDS011;64303;53.118;9.044;2023-02-15T10:24:48;21.85;;;19.52;;
75689;SDS011;64303;53.118;9.044;2023-02-15T10:27:24;20.02;;;17.98;;
75689;SDS011;64303;53.118;9.044;2023-02-15T10:29:56;20.23;;;15.52;;
75689;SDS011;64303;53.118;9.044;2023-02-15T10:32:31;21.73;;;18.83;;
75689;SDS011;64303;53.118;9.044;2023-02-15T10:35:00;23.45;;;21.20;;
75689;SDS011;64303;53.118;9.044;2023-02-15T10:37:34;23.40;;;20.02;;
75689;SDS011;64303;53.118;9.044;2023-02-15T10:40:10;21.35;;;19.15;;
75689;SDS011;64303;53.118;9.044;2023-02-15T10:42:45;21.42;;;19.33;;
75689;SDS011;64303;53.118;9.044;2023-02-15T10:45:23;26.67;;;20.38;;
75689;SDS011;64303;53.118;9.044;2023-02-15T10:50:29;22.60;;;20.35;;
75689;SDS011;64303;53.118;9.044;2023-02-15T10:53:09;21.42;;;19.13;;
75689;SDS011;64303;53.118;9.044;2023-02-15T10:55:55;20.98;;;18.67;;
75689;SDS011;64303;53.118;9.044;2023-02-15T10:58:31;20.42;;;17.45;;
75689;SDS011;64303;53.118;9.044;2023-02-15T11:01:08;23.45;;;21.20;;
75689;SDS011;64303;53.118;9.044;2023-02-15T11:03:42;22.00;;;19.00;;
75689;SDS011;64303;53.118;9.044;2023-02-15T11:06:18;23.70;;;21.13;;
75689;SDS011;64303;53.118;9.044;2023-02-15T11:08:46;24.15;;;16.48;;
75689;SDS011;64303;53.118;9.044;2023-02-15T11:11:15;23.25;;;20.90;;
75689;SDS011;64303;53.118;9.044;2023-02-15T11:13:48;22.15;;;19.88;;
75689;SDS011;64303;53.118;9.044;2023-02-15T11:16:18;23.75;;;19.45;;
75689;SDS011;64303;53.118;9.044;2023-02-15T11:18:48;23.23;;;20.88;;
75689;SDS011;64303;53.118;9.044;2023-02-15T11:21:19;24.35;;;21.77;;
75689;SDS011;64303;53.118;9.044;2023-02-15T11:23:47;22.70;;;20.35;;
75689;SDS011;64303;53.118;9.044;2023-02-15T11:26:15;21.27;;;16.23;;
75689;SDS011;64303;53.118;9.044;2023-02-15T11:28:45;23.15;;;19.77;;
75689;SDS011;64303;53.118;9.044;2023-02-15T11:31:15;23.50;;;21.02;;
75689;SDS011;64303;53.118;9.044;2023-02-15T11:33:46;25.13;;;20.08;;
75689;SDS011;64303;53.118;9.044;2023-02-15T11:36:16;24.02;;;20.83;;
75689;SDS011;64303;53.118;9.044;2023-02-15T11:38:45;22.63;;;20.13;;
75689;SDS011;64303;53.118;9.044;2023-02-15T11:41:14;24.35;;;19.67;;
75689;SDS011;64303;53.118;9.044;2023-02-15T11:43:46;22.00;;;19.58;;
75689;SDS011;64303;53.118;9.044;2023-02-15T11:46:16;23.80;;;19.85;;
75689;SDS011;64303;53.118;9.044;2023-02-15T11:48:47;25.92;;;21.05;;
75689;SDS011;64303;53.118;9.044;2023-02-15T11:51:16;26.52;;;21.30;;
75689;SDS011;64303;53.118;9.044;2023-02-15T11:53:44;21.80;;;17.88;;
75689;SDS011;64303;53.118;9.044;2023-02-15T11:56:13;23.80;;;21.40;;
75689;SDS011;64303;53.118;9.044;2023-02-15T11:58:41;21.63;;;19.33;;
75689;SDS011;64303;53.118;9.044;2023-02-15T12:01:13;25.08;;;22.52;;
75689;SDS011;64303;53.118;9.044;2023-02-15T12:03:46;22.95;;;20.10;;
75689;SDS011;64303;53.118;9.044;2023-02-15T12:06:16;25.50;;;20.67;;
75689;SDS011;64303;53.118;9.044;2023-02-15T12:08:46;22.95;;;19.20;;
75689;SDS011;64303;53.118;9.044;2023-02-15T12:11:18;22.95;;;19.48;;
75689;SDS011;64303;53.118;9.044;2023-02-15T12:13:54;22.67;;;17.58;;
75689;SDS011;64303;53.118;9.044;2023-02-15T12:16:22;22.83;;;19.75;;
75689;SDS011;64303;53.118;9.044;2023-02-15T12:18:50;24.75;;;21.02;;
75689;SDS011;64303;53.118;9.044;2023-02-15T12:21:23;22.70;;;19.48;;
75689;SDS011;64303;53.118;9.044;2023-02-15T12:23:52;23.58;;;21.05;;
75689;SDS011;64303;53.118;9.044;2023-02-15T12:26:23;24.40;;;21.15;;
75689;SDS011;64303;53.118;9.044;2023-02-15T12:28:51;20.88;;;18.70;;
75689;SDS011;64303;53.118;9.044;2023-02-15T12:31:20;27.42;;;24.33;;
75689;SDS011;64303;53.118;9.044;2023-02-15T12:33:48;23.63;;;19.45;;
75689;SDS011;64303;53.118;9.044;2023-02-15T12:36:19;28.58;;;20.63;;
75689;SDS011;64303;53.118;9.044;2023-02-15T12:39:04;26.23;;;20.35;;
75689;SDS011;64303;53.118;9.044;2023-02-15T12:41:36;24.40;;;20.70;;
75689;SDS011;64303;53.118;9.044;2023-02-15T12:44:06;25.02;;;19.25;;
75689;SDS011;64303;53.118;9.044;2023-02-15T12:46:33;24.42;;;20.58;;
75689;SDS011;64303;53.118;9.044;2023-02-15T12:49:11;24.75;;;21.08;;
75689;SDS011;64303;53.118;9.044;2023-02-15T12:51:44;25.23;;;22.52;;
75689;SDS011;64303;53.118;9.044;2023-02-15T12:54:31;24.30;;;21.05;;
75689;SDS011;64303;53.118;9.044;2023-02-15T12:59:51;20.33;;;17.13;;
75689;SDS011;64303;53.118;9.044;2023-02-15T13:02:21;25.80;;;18.75;;
75689;SDS011;64303;53.118;9.044;2023-02-15T13:04:51;24.58;;;18.67;;
75689;SDS011;64303;53.118;9.044;2023-02-15T13:07:19;25.52;;;22.83;;
75689;SDS011;64303;53.118;9.044;2023-02-15T13:09:46;24.73;;;20.23;;
75689;SDS011;64303;53.118;9.044;2023-02-15T13:12:18;26.45;;;21.67;;
75689;SDS011;64303;53.118;9.044;2023-02-15T13:14:48;24.42;;;20.20;;
75689;SDS011;64303;53.118;9.044;2023-02-15T13:17:17;24.73;;;21.67;;
75689;SDS011;64303;53.118;9.044;2023-02-15T13:19:51;24.58;;;18.90;;
75689;SDS011;64303;53.118;9.044;2023-02-15T13:22:20;25.38;;;20.33;;
75689;SDS011;64303;53.118;9.044;2023-02-15T13:24:50;22.75;;;19.42;;
75689;SDS011;64303;53.118;9.044;2023-02-15T13:27:19;26.38;;;21.20;;
75689;SDS011;64303;53.118;9.044;2023-02-15T13:29:48;23.95;;;17.02;;
75689;SDS011;64303;53.118;9.044;2023-02-15T13:32:21;24.90;;;21.02;;
75689;SDS011;64303;53.118;9.044;2023-02-15T13:34:54;29.45;;;21.92;;
75689;SDS011;64303;53.118;9.044;2023-02-15T13:37:24;26.10;;;21.63;;
75689;SDS011;64303;53.118;9.044;2023-02-15T13:40:01;28.02;;;23.02;;
75689;SDS011;64303;53.118;9.044;2023-02-15T13:42:31;28.40;;;21.58;;
75689;SDS011;64303;53.118;9.044;2023-02-15T13:45:07;30.48;;;23.55;;
75689;SDS011;64303;53.118;9.044;2023-02-15T13:47:42;29.73;;;21.83;;
75689;SDS011;64303;53.118;9.044;2023-02-15T13:50:18;31.50;;;24.33;;
75689;SDS011;64303;53.118;9.044;2023-02-15T13:52:51;31.45;;;22.70;;
75689;SDS011;64303;53.118;9.044;2023-02-15T13:55:30;29.23;;;22.70;;
75689;SDS011;64303;53.118;9.044;2023-02-15T13:58:06;31.42;;;23.75;;
75689;SDS011;64303;53.118;9.044;2023-02-15T14:00:43;30.95;;;24.38;;
75689;SDS011;64303;53.118;9.044;2023-02-15T14:06:18;31.40;;;25.13;;
75689;SDS011;64303;53.118;9.044;2023-02-15T14:08:57;33.10;;;23.85;;
75689;SDS011;64303;53.118;9.044;2023-02-15T14:11:32;32.60;;;23.45;;
75689;SDS011;64303;53.118;9.044;2023-02-15T14:14:11;30.25;;;21.20;;
75689;SDS011;64303;53.118;9.044;2023-02-15T14:16:50;31.00;;;24.92;;
75689;SDS011;64303;53.118;9.044;2023-02-15T14:19:22;29.90;;;22.88;;
75689;SDS011;64303;53.118;9.044;2023-02-15T14:21:53;28.77;;;23.80;;
75689;SDS011;64303;53.118;9.044;2023-02-15T14:24:29;35.05;;;23.00;;
75689;SDS011;64303;53.118;9.044;2023-02-15T14:27:01;28.42;;;20.98;;
75689;SDS011;64303;53.118;9.044;2023-02-15T14:29:37;30.55;;;20.83;;
75689;SDS011;64303;53.118;9.044;2023-02-15T14:32:13;30.27;;;23.85;;
75689;SDS011;64303;53.118;9.044;2023-02-15T14:34:44;26.80;;;20.67;;
75689;SDS011;64303;53.118;9.044;2023-02-15T14:37:16;29.52;;;21.35;;
75689;SDS011;64303;53.118;9.044;2023-02-15T14:39:51;27.13;;;21.92;;
75689;SDS011;64303;53.118;9.044;2023-02-15T14:42:37;29.73;;;23.48;;
75689;SDS011;64303;53.118;9.044;2023-02-15T14:45:14;29.25;;;23.30;;
75689;SDS011;64303;53.118;9.044;2023-02-15T14:47:44;26.25;;;18.05;;
75689;SDS011;64303;53.118;9.044;2023-02-15T14:50:37;32.38;;;22.17;;
75689;SDS011;64303;53.118;9.044;2023-02-15T14:53:17;35.35;;;22.83;;
75689;SDS011;64303;53.118;9.044;2023-02-15T14:56:04;29.83;;;23.00;;
75689;SDS011;64303;53.118;9.044;2023-02-15T14:58:33;27.65;;;21.35;;
75689;SDS011;64303;53.118;9.044;2023-02-15T15:01:03;29.23;;;24.20;;